createdAt,value
2022-12-11T00:00:29.556Z,77.86
2022-12-11T00:02:59.201Z,77.82
2022-12-11T00:05:26.940Z,77.72
2022-12-11T00:07:54.326Z,77.64
2022-12-11T00:10:22.162Z,77.37
2022-12-11T00:12:49.729Z,77.40
2022-12-11T00:15:17.879Z,77.32
2022-12-11T00:17:45.356Z,77.33
2022-12-11T00:20:12.992Z,77.17
2022-12-11T00:22:40.439Z,77.32
2022-12-11T00:25:09.417Z,77.27
2022-12-11T00:27:37.282Z,77.29
2022-12-11T00:30:06.652Z,77.38
2022-12-11T00:32:37.557Z,77.48
2022-12-11T00:35:05.229Z,77.58
2022-12-11T00:37:32.946Z,77.76
2022-12-11T00:40:00.702Z,77.88
2022-12-11T00:42:28.522Z,78.01
2022-12-11T00:44:56.334Z,78.19
2022-12-11T00:47:24.176Z,78.20
2022-12-11T00:49:51.633Z,78.35
2022-12-11T00:52:19.269Z,78.27
2022-12-11T00:54:46.937Z,78.12
2022-12-11T00:57:14.532Z,78.00
2022-12-11T00:59:41.997Z,77.89
2022-12-11T01:02:09.629Z,77.87
2022-12-11T01:04:37.308Z,77.60
2022-12-11T01:07:04.950Z,77.13
2022-12-11T01:09:51.231Z,76.95
2022-12-11T01:12:18.827Z,76.84
2022-12-11T01:14:46.356Z,76.65
2022-12-11T01:17:14.258Z,76.70
2022-12-11T01:19:42.237Z,76.63
2022-12-11T01:22:09.876Z,76.76
2022-12-11T01:24:37.816Z,76.71
2022-12-11T01:27:05.473Z,76.75
2022-12-11T01:29:32.901Z,76.82
2022-12-11T01:32:00.632Z,76.88
2022-12-11T01:34:32.798Z,76.94
2022-12-11T01:37:00.133Z,76.97
2022-12-11T01:39:28.299Z,77.02
2022-12-11T01:41:58.769Z,77.08
2022-12-11T01:44:34.583Z,77.22
2022-12-11T01:47:02.077Z,77.41
2022-12-11T01:49:29.751Z,77.53
2022-12-11T01:52:11.295Z,77.68
2022-12-11T01:54:39.352Z,77.78
2022-12-11T01:57:10.947Z,77.94
2022-12-11T01:59:42.477Z,77.92
2022-12-11T02:02:24.647Z,77.85
2022-12-11T02:04:52.236Z,77.81
2022-12-11T02:07:20.035Z,77.47
2022-12-11T02:09:48.715Z,77.26
2022-12-11T02:12:53.813Z,77.28
2022-12-11T02:15:39.095Z,76.95
2022-12-11T02:18:17.784Z,76.68
2022-12-11T02:21:14.998Z,76.75
2022-12-11T02:24:02.488Z,76.77
2022-12-11T02:26:59.844Z,76.66
2022-12-11T02:29:38.897Z,76.56
2022-12-11T02:32:17.485Z,76.54
2022-12-11T02:34:53.547Z,76.59
2022-12-11T02:37:24.847Z,76.39
2022-12-11T02:39:55.288Z,76.45
2022-12-11T02:42:27.259Z,76.52
2022-12-11T02:44:57.815Z,76.61
2022-12-11T02:47:28.727Z,76.79
2022-12-11T02:49:58.918Z,76.98
2022-12-11T02:52:30.270Z,77.31
2022-12-11T02:55:01.055Z,77.53
2022-12-11T02:57:39.699Z,77.73
2022-12-11T03:00:09.808Z,78.03
2022-12-11T03:02:38.930Z,78.41
2022-12-11T03:05:08.088Z,78.67
2022-12-11T03:07:39.963Z,78.88
2022-12-11T03:10:13.997Z,79.17
2022-12-11T03:12:47.052Z,79.22
2022-12-11T03:15:17.872Z,79.19
2022-12-11T03:18:07.699Z,79.32
2022-12-11T03:20:46.839Z,79.31
2022-12-11T03:23:47.061Z,79.18
2022-12-11T03:26:17.193Z,79.02
2022-12-11T03:28:56.219Z,78.79
2022-12-11T03:31:32.393Z,78.69
2022-12-11T03:34:04.833Z,78.63
2022-12-11T03:36:38.805Z,78.64
2022-12-11T03:39:13.779Z,78.68
2022-12-11T03:41:44.453Z,78.76
2022-12-11T03:44:13.870Z,78.77
2022-12-11T03:46:45.616Z,78.85
2022-12-11T03:49:17.961Z,78.95
2022-12-11T03:51:49.153Z,79.07
2022-12-11T03:54:21.794Z,79.28
2022-12-11T03:56:56.948Z,79.51
2022-12-11T03:59:25.506Z,79.71
2022-12-11T04:01:53.813Z,79.87
2022-12-11T04:04:22.614Z,80.03
2022-12-11T04:06:50.464Z,80.23
2022-12-11T04:09:18.003Z,80.52
2022-12-11T04:11:45.444Z,80.75
2022-12-11T04:14:32.916Z,81.03
2022-12-11T04:17:01.401Z,81.26
2022-12-11T04:19:47.981Z,81.44
2022-12-11T04:22:35.498Z,81.45
2022-12-11T04:25:07.000Z,81.35
2022-12-11T04:27:49.894Z,81.30
2022-12-11T04:30:28.037Z,81.28
2022-12-11T04:32:54.941Z,81.24
2022-12-11T04:35:23.232Z,81.23
2022-12-11T04:37:52.460Z,80.95
2022-12-11T04:40:20.801Z,80.90
2022-12-11T04:42:48.595Z,80.77
2022-12-11T04:45:16.444Z,80.72
2022-12-11T04:47:44.082Z,80.65
2022-12-11T04:50:14.471Z,80.60
2022-12-11T04:52:42.981Z,80.63
2022-12-11T04:55:11.876Z,80.65
2022-12-11T04:57:39.776Z,80.71
2022-12-11T05:00:11.062Z,80.74
2022-12-11T05:02:40.483Z,80.70
2022-12-11T05:05:10.667Z,80.77
2022-12-11T05:07:38.988Z,81.07
2022-12-11T05:10:08.741Z,81.43
2022-12-11T05:12:36.496Z,81.63
2022-12-11T05:15:05.899Z,81.72
2022-12-11T05:17:34.165Z,81.97
2022-12-11T05:20:01.648Z,82.19
2022-12-11T05:22:31.336Z,82.41
2022-12-11T05:24:59.128Z,82.39
2022-12-11T05:27:26.970Z,82.53
2022-12-11T05:29:59.360Z,82.74
2022-12-11T05:32:27.161Z,82.79
2022-12-11T05:34:54.874Z,82.73
2022-12-11T05:37:22.339Z,82.79
2022-12-11T05:39:49.987Z,82.91
2022-12-11T05:42:17.816Z,82.80
2022-12-11T05:44:45.970Z,82.52
2022-12-11T05:47:13.715Z,82.39
2022-12-11T05:49:41.350Z,82.41
2022-12-11T05:52:09.118Z,82.25
2022-12-11T05:54:36.875Z,82.09
2022-12-11T05:57:04.456Z,82.16
2022-12-11T05:59:31.900Z,82.15
2022-12-11T06:01:59.623Z,82.23
2022-12-11T06:04:27.566Z,82.44
2022-12-11T06:06:55.245Z,82.71
2022-12-11T06:09:22.747Z,82.93
2022-12-11T06:11:50.514Z,83.09
2022-12-11T06:14:18.030Z,83.37
2022-12-11T06:16:45.576Z,83.50
2022-12-11T06:19:16.888Z,83.99
2022-12-11T06:21:48.159Z,84.06
2022-12-11T06:24:15.642Z,84.18
2022-12-11T06:26:42.855Z,84.22
2022-12-11T06:29:12.901Z,84.33
2022-12-11T06:31:39.730Z,84.35
2022-12-11T06:34:07.954Z,84.27
2022-12-11T06:36:35.491Z,84.04
2022-12-11T06:39:03.436Z,84.29
2022-12-11T06:41:30.923Z,84.16
2022-12-11T06:43:58.477Z,83.86
2022-12-11T06:46:25.925Z,83.73
2022-12-11T06:48:53.590Z,83.75
2022-12-11T06:51:24.408Z,83.39
2022-12-11T06:53:55.486Z,83.47
2022-12-11T06:56:24.377Z,83.43
2022-12-11T06:58:52.611Z,83.56
2022-12-11T07:01:24.985Z,83.81
2022-12-11T07:03:58.827Z,83.95
2022-12-11T07:06:28.439Z,84.09
2022-12-11T07:08:56.723Z,84.23
2022-12-11T07:11:24.553Z,84.44
2022-12-11T07:13:52.218Z,84.57
2022-12-11T07:16:21.028Z,84.82
2022-12-11T07:18:50.872Z,84.90
2022-12-11T07:21:20.597Z,85.17
2022-12-11T07:23:49.321Z,85.40
2022-12-11T07:26:20.515Z,85.65
2022-12-11T07:28:48.495Z,85.85
2022-12-11T07:31:22.682Z,85.98
2022-12-11T07:33:55.096Z,86.19
2022-12-11T07:36:23.959Z,86.24
2022-12-11T07:38:51.551Z,86.35
2022-12-11T07:41:19.476Z,86.44
2022-12-11T07:43:50.335Z,86.70
2022-12-11T07:46:22.934Z,86.63
2022-12-11T07:48:51.222Z,86.78
2022-12-11T07:51:29.958Z,86.99
2022-12-11T07:54:01.882Z,87.23
2022-12-11T07:56:30.934Z,87.27
2022-12-11T07:59:00.686Z,87.33
2022-12-11T08:01:30.463Z,87.43
2022-12-11T08:03:58.090Z,87.39
2022-12-11T08:06:29.906Z,87.43
2022-12-11T08:08:59.227Z,87.51
2022-12-11T08:11:27.280Z,87.57
2022-12-11T08:13:55.594Z,87.68
2022-12-11T08:16:23.616Z,87.71
2022-12-11T08:18:52.272Z,87.77
2022-12-11T08:21:24.317Z,88.00
2022-12-11T08:23:53.845Z,88.36
2022-12-11T08:26:31.108Z,87.95
2022-12-11T08:29:01.978Z,88.09
2022-12-11T08:31:30.061Z,87.87
2022-12-11T08:33:58.208Z,87.78
2022-12-11T08:36:26.255Z,87.68
2022-12-11T08:38:55.903Z,87.77
2022-12-11T08:41:29.610Z,87.44
2022-12-11T08:43:59.886Z,87.21
2022-12-11T08:46:31.394Z,87.16
2022-12-11T08:48:59.891Z,87.30
2022-12-11T08:51:29.889Z,86.79
2022-12-11T08:54:00.693Z,86.76
2022-12-11T08:56:30.093Z,86.94
2022-12-11T08:59:00.587Z,86.89
2022-12-11T09:01:28.859Z,86.71
2022-12-11T09:03:57.086Z,86.52
2022-12-11T09:06:28.511Z,86.61
2022-12-11T09:08:59.695Z,86.74
2022-12-11T09:11:31.792Z,86.90
2022-12-11T09:14:06.805Z,85.08
2022-12-11T09:16:31.270Z,84.42
2022-12-11T09:19:00.254Z,83.85
2022-12-11T09:21:30.514Z,83.80
2022-12-11T09:24:01.062Z,82.39
2022-12-11T09:26:30.449Z,82.19
2022-12-11T09:28:58.295Z,81.95
2022-12-11T09:31:30.540Z,80.63
2022-12-11T09:34:02.591Z,80.88
2022-12-11T09:36:31.491Z,80.69
2022-12-11T09:39:05.747Z,81.02
2022-12-11T09:41:40.126Z,80.04
2022-12-11T09:44:31.457Z,80.32
2022-12-11T09:47:00.494Z,80.77
2022-12-11T09:49:39.846Z,80.85
2022-12-11T09:52:34.446Z,81.06
2022-12-11T09:55:16.343Z,81.23
2022-12-11T09:58:01.541Z,81.48
2022-12-11T10:00:43.814Z,82.19
2022-12-11T10:03:25.541Z,82.09
2022-12-11T10:06:28.961Z,81.21
2022-12-11T10:09:13.720Z,81.64
2022-12-11T10:12:28.229Z,82.87
2022-12-11T10:15:20.909Z,83.63
2022-12-11T10:17:48.668Z,83.90
2022-12-11T10:20:39.455Z,84.23
2022-12-11T10:23:11.440Z,84.49
2022-12-11T10:25:43.975Z,84.03
2022-12-11T10:28:20.549Z,82.71
2022-12-11T10:31:20.050Z,82.51
2022-12-11T10:34:03.939Z,82.70
2022-12-11T10:36:38.674Z,82.63
2022-12-11T10:39:19.808Z,81.78
2022-12-11T10:41:53.412Z,82.50
2022-12-11T10:44:25.227Z,83.04
2022-12-11T10:47:14.580Z,83.15
2022-12-11T10:49:58.995Z,83.39
2022-12-11T10:52:39.202Z,81.69
2022-12-11T10:55:21.379Z,80.44
2022-12-11T10:58:03.086Z,78.59
2022-12-11T11:00:38.507Z,79.06
2022-12-11T11:03:26.941Z,79.02
2022-12-11T11:06:18.473Z,78.25
2022-12-11T11:08:49.712Z,78.20
2022-12-11T11:11:34.243Z,78.33
2022-12-11T11:14:18.167Z,78.31
2022-12-11T11:16:49.701Z,77.78
2022-12-11T11:19:35.622Z,77.31
2022-12-11T11:22:13.630Z,75.56
2022-12-11T11:24:55.498Z,75.21
2022-12-11T11:27:34.437Z,74.24
2022-12-11T11:30:10.522Z,75.14
2022-12-11T11:32:39.797Z,74.49
2022-12-11T11:35:18.693Z,74.68
2022-12-11T11:37:56.953Z,75.19
2022-12-11T11:40:32.811Z,75.56
2022-12-11T11:43:30.321Z,75.66
2022-12-11T11:46:06.397Z,76.15
2022-12-11T11:48:41.979Z,75.90
2022-12-11T11:51:27.041Z,75.55
2022-12-11T11:53:59.089Z,75.46
2022-12-11T11:56:37.075Z,75.60
2022-12-11T11:59:30.857Z,74.92
2022-12-11T12:01:59.471Z,75.71
2022-12-11T12:04:34.456Z,75.86
2022-12-11T12:07:41.312Z,75.48
2022-12-11T12:10:26.708Z,75.13
2022-12-11T12:13:18.776Z,74.32
2022-12-11T12:15:59.595Z,74.42
2022-12-11T12:18:48.325Z,74.90
2022-12-11T12:21:39.744Z,73.42
2022-12-11T12:24:31.229Z,74.08
2022-12-11T12:27:51.450Z,73.32
2022-12-11T12:30:07.860Z,73.97
2022-12-11T12:32:56.323Z,74.42
2022-12-11T12:35:46.977Z,74.85
2022-12-11T12:38:40.875Z,75.16
2022-12-11T12:41:26.197Z,75.52
2022-12-11T12:44:16.362Z,75.50
2022-12-11T12:46:58.564Z,73.52
2022-12-11T12:49:37.895Z,73.20
2022-12-11T12:52:13.321Z,72.20
2022-12-11T12:54:47.576Z,72.04
2022-12-11T12:57:15.419Z,71.67
2022-12-11T12:59:44.641Z,71.67
2022-12-11T13:02:15.767Z,71.00
2022-12-11T13:04:56.109Z,71.64
2022-12-11T13:07:19.899Z,71.98
2022-12-11T13:10:09.873Z,71.62
2022-12-11T13:12:46.671Z,71.10
2022-12-11T13:15:40.120Z,71.83
2022-12-11T13:18:34.417Z,71.26
2022-12-11T13:21:24.408Z,71.87
2022-12-11T13:23:52.732Z,72.10
2022-12-11T13:26:32.659Z,72.58
2022-12-11T13:29:00.604Z,72.62
2022-12-11T13:31:38.125Z,72.54
2022-12-11T13:34:20.080Z,72.48
2022-12-11T13:36:50.871Z,72.05
2022-12-11T13:39:26.899Z,71.75
2022-12-11T13:42:02.546Z,71.84
2022-12-11T13:44:38.991Z,70.78
2022-12-11T13:47:13.167Z,71.44
2022-12-11T13:49:44.250Z,70.53
2022-12-11T13:52:21.700Z,70.40
2022-12-11T13:54:53.322Z,70.20
2022-12-11T13:57:29.282Z,70.81
2022-12-11T13:59:58.914Z,70.98
2022-12-11T14:02:38.294Z,71.22
2022-12-11T14:05:10.107Z,71.21
2022-12-11T14:07:45.864Z,71.20
2022-12-11T14:10:24.893Z,70.56
2022-12-11T14:13:26.682Z,70.90
2022-12-11T14:15:54.885Z,69.59
2022-12-11T14:18:27.152Z,67.17
2022-12-11T14:21:01.053Z,68.33
2022-12-11T14:23:32.180Z,68.13
2022-12-11T14:26:21.952Z,68.00
2022-12-11T14:28:50.420Z,68.05
2022-12-11T14:31:32.481Z,68.53
2022-12-11T14:34:17.405Z,67.70
2022-12-11T14:36:47.820Z,68.06
2022-12-11T14:39:33.421Z,67.95
2022-12-11T14:42:09.582Z,68.60
2022-12-11T14:44:51.439Z,68.72
2022-12-11T14:47:36.397Z,69.16
2022-12-11T14:50:46.505Z,69.42
2022-12-11T14:53:25.128Z,69.60
2022-12-11T14:55:53.562Z,69.05
2022-12-11T14:58:26.753Z,69.32
2022-12-11T15:01:04.581Z,67.99
2022-12-11T15:03:38.803Z,67.18
2022-12-11T15:06:31.959Z,67.53
2022-12-11T15:09:11.018Z,68.07
2022-12-11T15:11:38.820Z,68.40
2022-12-11T15:14:11.211Z,68.16
2022-12-11T15:16:41.743Z,68.58
2022-12-11T15:19:28.999Z,68.75
2022-12-11T15:22:03.439Z,68.80
2022-12-11T15:24:38.181Z,69.10
2022-12-11T15:27:09.106Z,69.30
2022-12-11T15:29:39.622Z,69.17
2022-12-11T15:32:17.172Z,68.54
2022-12-11T15:34:58.021Z,66.58
2022-12-11T15:37:38.023Z,67.43
2022-12-11T15:40:07.444Z,67.35
2022-12-11T15:42:40.994Z,67.42
2022-12-11T15:45:18.748Z,67.58
2022-12-11T15:47:48.303Z,68.22
2022-12-11T15:50:21.124Z,68.16
2022-12-11T15:52:50.897Z,68.64
2022-12-11T15:55:19.880Z,69.10
2022-12-11T15:57:55.170Z,68.92
2022-12-11T16:00:24.052Z,68.43
2022-12-11T16:02:51.777Z,67.92
2022-12-11T16:05:21.320Z,67.13
2022-12-11T16:07:53.519Z,66.48
2022-12-11T16:10:22.135Z,66.83
2022-12-11T16:12:51.558Z,67.24
2022-12-11T16:15:23.388Z,67.44
2022-12-11T16:17:49.384Z,67.97
2022-12-11T16:20:18.437Z,68.10
2022-12-11T16:22:46.016Z,68.13
2022-12-11T16:25:13.853Z,68.47
2022-12-11T16:27:42.659Z,68.89
2022-12-11T16:30:12.982Z,68.80
2022-12-11T16:32:40.800Z,68.34
2022-12-11T16:35:08.525Z,68.26
2022-12-11T16:37:36.086Z,68.66
2022-12-11T16:40:06.079Z,69.03
2022-12-11T16:42:34.066Z,69.46
2022-12-11T16:45:11.305Z,69.04
2022-12-11T16:47:39.374Z,68.91
2022-12-11T16:50:08.113Z,69.30
2022-12-11T16:52:36.131Z,69.21
2022-12-11T16:55:05.021Z,68.04
2022-12-11T16:57:32.771Z,68.09
2022-12-11T17:00:00.403Z,68.43
2022-12-11T17:02:30.236Z,68.97
2022-12-11T17:04:58.179Z,68.64
2022-12-11T17:07:25.889Z,67.48
2022-12-11T17:09:53.198Z,66.94
2022-12-11T17:12:22.336Z,66.37
2022-12-11T17:14:49.550Z,66.62
2022-12-11T17:17:17.028Z,66.70
2022-12-11T17:19:44.705Z,67.24
2022-12-11T17:22:12.282Z,67.04
2022-12-11T17:24:40.299Z,67.12
2022-12-11T17:27:08.483Z,66.91
2022-12-11T17:29:37.425Z,67.16
2022-12-11T17:32:05.863Z,67.44
2022-12-11T17:34:38.196Z,67.54
2022-12-11T17:37:03.425Z,67.88
2022-12-11T17:39:31.294Z,67.85
2022-12-11T17:41:59.063Z,68.33
2022-12-11T17:44:28.632Z,68.37
2022-12-11T17:46:58.903Z,68.51
2022-12-11T17:49:26.844Z,68.53
2022-12-11T17:51:54.848Z,68.91
2022-12-11T17:54:23.718Z,68.99
2022-12-11T17:56:51.797Z,68.74
2022-12-11T17:59:19.403Z,68.66
2022-12-11T18:01:47.170Z,68.89
2022-12-11T18:04:14.782Z,69.08
2022-12-11T18:06:42.395Z,68.86
2022-12-11T18:09:10.871Z,69.17
2022-12-11T18:11:38.401Z,69.32
2022-12-11T18:14:06.029Z,68.56
2022-12-11T18:16:39.900Z,68.62
2022-12-11T18:19:07.984Z,68.32
2022-12-11T18:21:39.850Z,68.64
2022-12-11T18:24:09.420Z,68.99
2022-12-11T18:26:37.333Z,69.21
2022-12-11T18:29:06.250Z,68.50
2022-12-11T18:31:38.866Z,68.85
2022-12-11T18:34:05.654Z,69.25
2022-12-11T18:36:35.731Z,69.23
2022-12-11T18:39:03.598Z,69.52
2022-12-11T18:41:31.371Z,69.77
2022-12-11T18:44:07.975Z,70.03
2022-12-11T18:46:31.781Z,70.53
2022-12-11T18:48:59.435Z,71.14
2022-12-11T18:51:27.191Z,71.03
2022-12-11T18:53:55.664Z,71.21
2022-12-11T18:56:23.790Z,71.56
2022-12-11T18:58:51.495Z,72.46
2022-12-11T19:01:24.394Z,73.26
2022-12-11T19:04:03.272Z,73.46
2022-12-11T19:06:29.835Z,74.49
2022-12-11T19:08:57.877Z,74.22
2022-12-11T19:11:28.566Z,74.06
2022-12-11T19:13:56.798Z,74.04
2022-12-11T19:16:30.124Z,74.32
2022-12-11T19:18:58.488Z,74.29
2022-12-11T19:21:26.888Z,74.43
2022-12-11T19:23:54.414Z,74.49
2022-12-11T19:26:23.802Z,74.54
2022-12-11T19:28:53.473Z,74.50
2022-12-11T19:31:22.733Z,74.62
2022-12-11T19:33:50.385Z,74.67
2022-12-11T19:36:23.498Z,74.67
2022-12-11T19:38:57.778Z,74.74
2022-12-11T19:41:28.739Z,74.71
2022-12-11T19:43:58.348Z,74.69
2022-12-11T19:46:26.399Z,74.66
2022-12-11T19:48:56.605Z,74.70
2022-12-11T19:51:29.634Z,74.86
2022-12-11T19:54:02.149Z,75.02
2022-12-11T19:56:31.171Z,75.03
2022-12-11T19:59:00.165Z,75.29
2022-12-11T20:01:30.645Z,75.29
2022-12-11T20:04:02.428Z,75.32
2022-12-11T20:06:33.032Z,75.29
2022-12-11T20:09:02.648Z,75.21
2022-12-11T20:11:32.626Z,75.06
2022-12-11T20:14:00.329Z,75.05
2022-12-11T20:16:53.752Z,75.17
2022-12-11T20:18:57.578Z,75.11
2022-12-11T20:21:26.848Z,75.11
2022-12-11T20:23:55.154Z,75.04
2022-12-11T20:26:24.383Z,75.00
2022-12-11T20:28:52.890Z,74.79
2022-12-11T20:31:23.599Z,74.78
2022-12-11T20:33:53.027Z,74.91
2022-12-11T20:36:22.530Z,74.93
2022-12-11T20:38:50.641Z,74.85
2022-12-11T20:41:21.678Z,75.00
2022-12-11T20:43:49.770Z,75.10
2022-12-11T20:46:18.085Z,75.33
2022-12-11T20:48:46.596Z,75.24
2022-12-11T20:51:23.957Z,75.42
2022-12-11T20:53:50.836Z,75.42
2022-12-11T20:56:20.117Z,75.43
2022-12-11T20:58:47.876Z,75.57
2022-12-11T21:01:18.952Z,75.79
2022-12-11T21:03:47.028Z,75.95
2022-12-11T21:06:30.385Z,75.89
2022-12-11T21:09:00.465Z,75.89
2022-12-11T21:11:28.416Z,76.02
2022-12-11T21:13:56.206Z,76.10
2022-12-11T21:16:24.223Z,76.25
2022-12-11T21:18:52.104Z,76.02
2022-12-11T21:21:20.854Z,76.07
2022-12-11T21:23:48.861Z,76.17
2022-12-11T21:26:17.313Z,76.15
2022-12-11T21:28:44.911Z,76.21
2022-12-11T21:31:16.404Z,76.12
2022-12-11T21:33:45.241Z,76.01
2022-12-11T21:36:14.419Z,76.04
2022-12-11T21:38:43.469Z,76.14
2022-12-11T21:41:15.037Z,75.74
2022-12-11T21:44:30.980Z,75.84
2022-12-11T21:46:17.783Z,75.83
2022-12-11T21:48:47.806Z,75.22
2022-12-11T21:51:23.284Z,75.12
2022-12-11T21:53:52.369Z,74.89
2022-12-11T21:56:22.769Z,75.07
2022-12-11T21:58:51.839Z,74.77
2022-12-11T22:01:24.862Z,74.70
2022-12-11T22:03:53.445Z,73.95
2022-12-11T22:06:21.068Z,74.03
2022-12-11T22:08:49.580Z,74.54
2022-12-11T22:11:24.543Z,74.92
2022-12-11T22:13:52.414Z,75.13
2022-12-11T22:16:21.249Z,75.34
2022-12-11T22:18:49.000Z,75.50
2022-12-11T22:21:17.063Z,75.70
2022-12-11T22:23:45.061Z,75.82
2022-12-11T22:26:20.235Z,75.54
2022-12-11T22:28:48.869Z,75.77
2022-12-11T22:31:20.036Z,76.02
2022-12-11T22:33:49.550Z,75.82
2022-12-11T22:36:18.427Z,75.97
2022-12-11T22:38:47.057Z,76.05
2022-12-11T22:41:25.546Z,76.57
2022-12-11T22:43:54.219Z,76.73
2022-12-11T22:46:24.793Z,76.61
2022-12-11T22:48:53.389Z,76.55
2022-12-11T22:51:22.290Z,76.91
2022-12-11T22:53:50.389Z,76.88
2022-12-11T22:56:18.046Z,76.78
2022-12-11T22:58:45.607Z,76.54
2022-12-11T23:01:23.054Z,76.38
2022-12-11T23:03:50.540Z,76.22
2022-12-11T23:06:22.679Z,75.92
2022-12-11T23:08:52.198Z,76.04
2022-12-11T23:11:27.160Z,75.93
2022-12-11T23:13:56.253Z,75.59
2022-12-11T23:16:26.515Z,75.60
2022-12-11T23:18:55.820Z,75.73
2022-12-11T23:21:25.978Z,75.66
2022-12-11T23:23:55.085Z,76.11
2022-12-11T23:26:23.918Z,76.12
2022-12-11T23:28:51.408Z,76.15
2022-12-11T23:31:19.196Z,75.99
2022-12-11T23:33:47.114Z,75.90
2022-12-11T23:36:15.010Z,75.77
2022-12-11T23:38:42.762Z,75.64
2022-12-11T23:41:13.791Z,75.91
2022-12-11T23:43:42.272Z,76.26
2022-12-11T23:46:17.431Z,76.44
2022-12-11T23:48:45.402Z,76.85
2022-12-11T23:51:16.522Z,76.68
2022-12-11T23:53:45.195Z,77.03
2022-12-11T23:56:17.442Z,77.07
2022-12-11T23:58:46.324Z,77.04
